地図

経路データ

SID SEASON NUMBER BASIN SUBBASIN NAME ISO_TIME NATURE LAT LON WMO_WIND WMO_PRES WMO_AGENCY TRACK_TYPE DIST2LAND LANDFALL IFLAG USA_AGENCY USA_ATCF_ID USA_LAT USA_LON USA_RECORD USA_STATUS USA_WIND USA_PRES USA_SSHS USA_R34_NE USA_R34_SE USA_R34_SW USA_R34_NW USA_R50_NE USA_R50_SE USA_R50_SW USA_R50_NW USA_R64_NE USA_R64_SE USA_R64_SW USA_R64_NW USA_POCI USA_ROCI USA_RMW USA_EYE TOKYO_LAT TOKYO_LON TOKYO_GRADE TOKYO_WIND TOKYO_PRES TOKYO_R50_DIR TOKYO_R50_LONG TOKYO_R50_SHORT TOKYO_R30_DIR TOKYO_R30_LONG TOKYO_R30_SHORT TOKYO_LAND CMA_LAT CMA_LON CMA_CAT CMA_WIND CMA_PRES HKO_LAT HKO_LON HKO_CAT HKO_WIND HKO_PRES NEWDELHI_LAT NEWDELHI_LON NEWDELHI_GRADE NEWDELHI_WIND NEWDELHI_PRES NEWDELHI_CI NEWDELHI_DP NEWDELHI_POCI REUNION_LAT REUNION_LON REUNION_TYPE REUNION_WIND REUNION_PRES REUNION_TNUM REUNION_CI REUNION_RMW REUNION_R34_NE REUNION_R34_SE REUNION_R34_SW REUNION_R34_NW REUNION_R50_NE REUNION_R50_SE REUNION_R50_SW REUNION_R50_NW REUNION_R64_NE REUNION_R64_SE REUNION_R64_SW REUNION_R64_NW BOM_LAT BOM_LON BOM_TYPE BOM_WIND BOM_PRES BOM_TNUM BOM_CI BOM_RMW BOM_R34_NE BOM_R34_SE BOM_R34_SW BOM_R34_NW BOM_R50_NE BOM_R50_SE BOM_R50_SW BOM_R50_NW BOM_R64_NE BOM_R64_SE BOM_R64_SW BOM_R64_NW BOM_ROCI BOM_POCI BOM_EYE BOM_POS_METHOD BOM_PRES_METHOD NADI_LAT NADI_LON NADI_CAT NADI_WIND NADI_PRES WELLINGTON_LAT WELLINGTON_LON WELLINGTON_WIND WELLINGTON_PRES DS824_LAT DS824_LON DS824_STAGE DS824_WIND DS824_PRES TD9636_LAT TD9636_LON TD9636_STAGE TD9636_WIND TD9636_PRES TD9635_LAT TD9635_LON TD9635_WIND TD9635_PRES TD9635_ROCI NEUMANN_LAT NEUMANN_LON NEUMANN_CLASS NEUMANN_WIND NEUMANN_PRES MLC_LAT MLC_LON MLC_CLASS MLC_WIND MLC_PRES USA_GUST BOM_GUST BOM_GUST_PER REUNION_GUST REUNION_GUST_PER USA_SEAHGT USA_SEARAD_NE USA_SEARAD_SE USA_SEARAD_SW USA_SEARAD_NW STORM_SPEED STORM_DIR
1921289N24276 1921 54 NA GM NOT_NAMED 1921-10-15 12:00:00 TS 24.0000 -84.0000 30 hurdat_atl main 137 137 O_____________ hurdat_atl AL051921 24.0000 -84.0000 TD 30 -1 18 31
1921289N24276 1921 54 NA GM NOT_NAMED 1921-10-15 15:00:00 TS 24.7504 -83.5137 main 212 137 P_____________ AL051921 24.7504 -83.5137 TD 30 -1 18 31
1921289N24276 1921 54 NA GM NOT_NAMED 1921-10-15 18:00:00 TS 25.5000 -83.0000 30 hurdat_atl main 137 59 O_____________ hurdat_atl AL051921 25.5000 -83.0000 TD 30 -1 18 33
1921289N24276 1921 54 NA GM NOT_NAMED 1921-10-15 21:00:00 TS 26.2496 -82.4365 main 52 0 P_____________ AL051921 26.2496 -82.4365 TD 30 -1 19 36
1921289N24276 1921 54 NA NA NOT_NAMED 1921-10-16 00:00:00 TS 27.0000 -81.8000 30 hurdat_atl main 0 0 O_____________ hurdat_atl AL051921 27.0000 -81.8000 TD 30 -1 19 39
1921289N24276 1921 54 NA NA NOT_NAMED 1921-10-16 03:00:00 TS 27.7496 -81.0939 main 0 0 P_____________ AL051921 27.7496 -81.0939 TD 32 -1 20 42
1921289N24276 1921 54 NA NA NOT_NAMED 1921-10-16 06:00:00 TS 28.5000 -80.3000 35 hurdat_atl main 19 19 O_____________ hurdat_atl AL051921 28.5000 -80.3000 TS 35 0 21 44
1921289N24276 1921 54 NA NA NOT_NAMED 1921-10-16 09:00:00 TS 29.2337 -79.4723 main 124 124 P_____________ AL051921 29.2337 -79.4723 TS 40 0 22 46
1921289N24276 1921 54 NA NA NOT_NAMED 1921-10-16 12:00:00 TS 30.0000 -78.5000 45 hurdat_atl main 252 252 O_____________ hurdat_atl AL051921 30.0000 -78.5000 TS 45 0 24 49
1921289N24276 1921 54 NA NA NOT_NAMED 1921-10-16 15:00:00 TS 30.8266 -77.3380 main 315 302 P_____________ AL051921 30.8266 -77.3380 TS 47 0 27 52
1921289N24276 1921 54 NA NA NOT_NAMED 1921-10-16 18:00:00 TS 31.7000 -76.0000 50 hurdat_atl main 308 296 O_____________ hurdat_atl AL051921 31.7000 -76.0000 TS 50 0 29 53
1921289N24276 1921 54 NA NA NOT_NAMED 1921-10-16 21:00:00 TS 32.5907 -74.5720 main 292 292 P_____________ AL051921 32.5907 -74.5720 TS 52 0 31 55
1921289N24276 1921 54 NA NA NOT_NAMED 1921-10-17 00:00:00 TS 33.5000 -73.0000 55 hurdat_atl main 340 339 O_____________ hurdat_atl AL051921 33.5000 -73.0000 TS 55 0 33 56
1921289N24276 1921 54 NA NA NOT_NAMED 1921-10-17 03:00:00 TS 34.4066 -71.2853 main 411 411 P_____________ AL051921 34.4066 -71.2853 TS 57 0 34 58
1921289N24276 1921 54 NA NA NOT_NAMED 1921-10-17 06:00:00 TS 35.3000 -69.5000 60 hurdat_atl main 544 544 O_____________ hurdat_atl AL051921 35.3000 -69.5000 TS 60 0 34 58
1921289N24276 1921 54 NA NA NOT_NAMED 1921-10-17 09:00:00 TS 36.1939 -67.7120 main 643 620 P_____________ AL051921 36.1939 -67.7120 TS 60 0 33 59
1921289N24276 1921 54 NA NA NOT_NAMED 1921-10-17 12:00:00 TS 37.0000 -66.0000 60 hurdat_atl main 625 625 O_____________ hurdat_atl AL051921 37.0000 -66.0000 TS 60 0 30 61
1921289N24276 1921 54 NA NA NOT_NAMED 1921-10-17 15:00:00 TS 37.6345 -64.4424 main 660 617 P_____________ AL051921 37.6345 -64.4424 TS 60 0 27 63
1921289N24276 1921 54 NA NA NOT_NAMED 1921-10-17 18:00:00 TS 38.2000 -63.0000 60 hurdat_atl main 620 602 O_____________ hurdat_atl AL051921 38.2000 -63.0000 TS 60 0 25 62
1921289N24276 1921 54 NA NA NOT_NAMED 1921-10-17 21:00:00 TS 38.8128 -61.5833 main 607 605 P_____________ AL051921 38.8128 -61.5833 TS 60 0 25 61
1921289N24276 1921 54 NA NA NOT_NAMED 1921-10-18 00:00:00 ET 39.4000 -60.2000 60 hurdat_atl main 620 613 O_____________ hurdat_atl AL051921 39.4000 -60.2000 EX 60 -4 24 62
1921289N24276 1921 54 NA NA NOT_NAMED 1921-10-18 03:00:00 ET 39.9355 -58.8059 main 618 603 P_____________ AL051921 39.9355 -58.8059 EX 60 -4 24 65
1921289N24276 1921 54 NA NA NOT_NAMED 1921-10-18 06:00:00 ET 40.4000 -57.4000 60 hurdat_atl main 612 610 O_____________ hurdat_atl AL051921 40.4000 -57.4000 EX 60 -4 23 68
1921289N24276 1921 54 NA NA NOT_NAMED 1921-10-18 09:00:00 ET 40.7925 -55.9784 main 640 616 P_____________ AL051921 40.7925 -55.9784 EX 60 -4 23 72
1921289N24276 1921 54 NA NA NOT_NAMED 1921-10-18 12:00:00 ET 41.1000 -54.5000 60 hurdat_atl main 615 589 O_____________ hurdat_atl AL051921 41.1000 -54.5000 EX 60 -4 24 77
1921289N24276 1921 54 NA NA NOT_NAMED 1921-10-18 15:00:00 ET 41.3298 -52.8910 main 589 579 P_____________ AL051921 41.3298 -52.8910 EX 60 -4 24 81
1921289N24276 1921 54 NA NA NOT_NAMED 1921-10-18 18:00:00 ET 41.5000 -51.3000 60 hurdat_atl main 586 586 O_____________ hurdat_atl AL051921 41.5000 -51.3000 EX 60 -4 23 82
1921289N24276 1921 54 NA NA NOT_NAMED 1921-10-18 21:00:00 ET 41.6621 -49.8692 main 604 604 P_____________ AL051921 41.6621 -49.8692 EX 60 -4 21 82
1921289N24276 1921 54 NA NA NOT_NAMED 1921-10-19 00:00:00 ET 41.8000 -48.5000 60 hurdat_atl main 650 650 O_____________ hurdat_atl AL051921 41.8000 -48.5000 EX 60 -4 21 83
1921289N24276 1921 54 NA NA NOT_NAMED 1921-10-19 03:00:00 ET 41.9061 -47.0916 main 711 711 P_____________ AL051921 41.9061 -47.0916 EX 60 -4 21 85
1921289N24276 1921 54 NA NA NOT_NAMED 1921-10-19 06:00:00 ET 42.0000 -45.7000 60 hurdat_atl main 783 783 O_____________ hurdat_atl AL051921 42.0000 -45.7000 EX 60 -4 21 84
1921289N24276 1921 54 NA NA NOT_NAMED 1921-10-19 09:00:00 ET 42.1137 -44.3281 main 862 862 P_____________ AL051921 42.1137 -44.3281 EX 60 -4 20 84
1921289N24276 1921 54 NA NA NOT_NAMED 1921-10-19 12:00:00 ET 42.2000 -43.0000 60 hurdat_atl main 939 939 O_____________ hurdat_atl AL051921 42.2000 -43.0000 EX 60 -4 19 87
1921289N24276 1921 54 NA NA NOT_NAMED 1921-10-19 15:00:00 ET 42.2068 -41.6963 main 1027 1027 P_____________ AL051921 42.2068 -41.6963 EX 60 -4 18 90
1921289N24276 1921 54 NA NA NOT_NAMED 1921-10-19 18:00:00 ET 42.2000 -40.5000 60 hurdat_atl main 1110 1110 O_____________ hurdat_atl AL051921 42.2000 -40.5000 EX 60 -4 17 89
1921289N24276 1921 54 NA NA NOT_NAMED 1921-10-19 21:00:00 ET 42.2494 -39.4032 main 1187 1187 P_____________ AL051921 42.2494 -39.4032 EX 60 -4 15 86
1921289N24276 1921 54 NA NA NOT_NAMED 1921-10-20 00:00:00 ET 42.3000 -38.5000 60 hurdat_atl main 1245 1245 O_____________ hurdat_atl AL051921 42.3000 -38.5000 EX 60 -4 11 87
1921289N24276 1921 54 NA NA NOT_NAMED 1921-10-20 03:00:00 ET 42.3134 -37.8474 main 1294 1294 P_____________ AL051921 42.3134 -37.8474 EX 60 -4 9 90
1921289N24276 1921 54 NA NA NOT_NAMED 1921-10-20 06:00:00 ET 42.3000 -37.3000 60 hurdat_atl main 1329 1329 O_____________ hurdat_atl AL051921 42.3000 -37.3000 EX 60 -4 9 92
1921289N24276 1921 54 NA NA NOT_NAMED 1921-10-20 09:00:00 ET 42.2795 -36.6732 main 1371 1371 P_____________ AL051921 42.2795 -36.6732 EX 60 -4 10 96
1921289N24276 1921 54 NA NA NOT_NAMED 1921-10-20 12:00:00 ET 42.2000 -36.0000 60 hurdat_atl main 1426 1426 O_____________ hurdat_atl AL051921 42.2000 -36.0000 EX 60 -4 11 103
1921289N24276 1921 54 NA NA NOT_NAMED 1921-10-20 15:00:00 ET 42.0373 -35.2651 main 1487 1487 P_____________ AL051921 42.0373 -35.2651 EX 62 -4 12 110
1921289N24276 1921 54 NA NA NOT_NAMED 1921-10-20 18:00:00 ET 41.8000 -34.5000 65 hurdat_atl main 1555 1555 O_____________ hurdat_atl AL051921 41.8000 -34.5000 EX 65 -4 12 115
1921289N24276 1921 54 NA NA NOT_NAMED 1921-10-20 21:00:00 ET 41.5070 -33.7499 main 1629 1629 P_____________ AL051921 41.5070 -33.7499 EX 67 -4 13 118
1921289N24276 1921 54 NA NA NOT_NAMED 1921-10-21 00:00:00 ET 41.2000 -33.0000 70 hurdat_atl main 1696 1696 O_____________ hurdat_atl AL051921 41.2000 -33.0000 EX 70 -4 13 115
1921289N24276 1921 54 NA NA NOT_NAMED 1921-10-21 03:00:00 ET 40.9577 -32.2133 main 1765 1765 P_____________ AL051921 40.9577 -32.2133 EX 70 -4 12 114
1921289N24276 1921 54 NA NA NOT_NAMED 1921-10-21 06:00:00 ET 40.7000 -31.5000 70 hurdat_atl main 1833 1810 O_____________ hurdat_atl AL051921 40.7000 -31.5000 EX 70 -4 11 121
1921289N24276 1921 54 NA NA NOT_NAMED 1921-10-21 09:00:00 ET 40.3721 -30.9252 main 1804 1785 P_____________ AL051921 40.3721 -30.9252 EX 67 -4 10 133
1921289N24276 1921 54 NA NA NOT_NAMED 1921-10-21 12:00:00 ET 40.0000 -30.5000 65 hurdat_atl main 1785 1759 O_____________ hurdat_atl AL051921 40.0000 -30.5000 EX 65 -4 9 144
1921289N24276 1921 54 NA NA NOT_NAMED 1921-10-21 15:00:00 ET 39.6072 -30.1904 main 1759 1716 P_____________ AL051921 39.6072 -30.1904 EX 62 -4 9 154
1921289N24276 1921 54 NA NA NOT_NAMED 1921-10-21 18:00:00 ET 39.2000 -30.0000 60 hurdat_atl main 1716 1681 O_____________ hurdat_atl AL051921 39.2000 -30.0000 EX 60 -4 9 163
1921289N24276 1921 54 NA NA NOT_NAMED 1921-10-21 21:00:00 ET 38.7924 -29.8627 main 1681 1646 P_____________ AL051921 38.7924 -29.8627 EX 57 -4 8 169
1921289N24276 1921 54 NA NA NOT_NAMED 1921-10-22 00:00:00 ET 38.4000 -29.8000 55 hurdat_atl main 1646 1625 O_____________ hurdat_atl AL051921 38.4000 -29.8000 EX 55 -4 8 175
1921289N24276 1921 54 NA NA NOT_NAMED 1921-10-22 03:00:00 ET 38.0425 -29.7700 main 1618 1597 P_____________ AL051921 38.0425 -29.7700 EX 52 -4 7 0
1921289N24276 1921 54 NA NA NOT_NAMED 1921-10-22 06:00:00 ET 37.7000 -29.8000 50 hurdat_atl main 1597 1578 O_____________ hurdat_atl AL051921 37.7000 -29.8000 EX 50 -4 7 186
1921289N24276 1921 54 NA NA NOT_NAMED 1921-10-22 09:00:00 ET 37.3349 -29.8624 main 1578 1565 P_____________ AL051921 37.3349 -29.8624 EX 47 -4 7 193
1921289N24276 1921 54 NA NA NOT_NAMED 1921-10-22 12:00:00 ET 37.0000 -30.0000 45 hurdat_atl main 1566 1560 O_____________ hurdat_atl AL051921 37.0000 -30.0000 EX 45 -4 7 205
1921289N24276 1921 54 NA NA NOT_NAMED 1921-10-22 15:00:00 ET 36.7350 -30.2199 main 1562 1562 P_____________ AL051921 36.7350 -30.2199 EX 42 -4 6 219
1921289N24276 1921 54 NA NA NOT_NAMED 1921-10-22 18:00:00 ET 36.5000 -30.5000 40 hurdat_atl main 1573 1573 O_____________ hurdat_atl AL051921 36.5000 -30.5000 EX 40 -4 7 222
1921289N24276 1921 54 NA NA NOT_NAMED 1921-10-22 21:00:00 ET 36.2274 -30.7851 main 1579 1579 P_____________ AL051921 36.2274 -30.7851 EX 37 -4 7 224
1921289N24276 1921 54 NA NA NOT_NAMED 1921-10-23 00:00:00 ET 36.0000 -31.1000 35 hurdat_atl main 1592 1592 O_____________ hurdat_atl AL051921 36.0000 -31.1000 EX 35 -4 6 237
1921289N24276 1921 54 NA NA NOT_NAMED 1921-10-23 03:00:00 ET 35.8775 -31.4422 main 1610 1610 P_____________ AL051921 35.8775 -31.4422 EX 35 -4 6 251
1921289N24276 1921 54 NA NA NOT_NAMED 1921-10-23 06:00:00 ET 35.8000 -31.8000 35 hurdat_atl main 1637 1637 O_____________ hurdat_atl AL051921 35.8000 -31.8000 EX 35 -4 6 252
1921289N24276 1921 54 NA NA NOT_NAMED 1921-10-23 09:00:00 ET 35.6850 -32.1651 main 1665 1665 P_____________ AL051921 35.6850 -32.1651 EX 32 -4 6 251
1921289N24276 1921 54 NA NA NOT_NAMED 1921-10-23 12:00:00 ET 35.6000 -32.5000 30 hurdat_atl main 1685 1685 O_____________ hurdat_atl AL051921 35.6000 -32.5000 EX 30 -4 5 260
1921289N24276 1921 54 NA NA NOT_NAMED 1921-10-23 15:00:00 ET 35.5924 -32.7873 main 1709 1709 P_____________ AL051921 35.5924 -32.7873 EX 30 -4 4 270
1921289N24276 1921 54 NA NA NOT_NAMED 1921-10-23 18:00:00 ET 35.6000 -33.0000 30 hurdat_atl main 1726 1726 O_____________ hurdat_atl AL051921 35.6000 -33.0000 EX 30 -4 2 260
1921289N24276 1921 54 NA NA NOT_NAMED 1921-10-23 21:00:00 ET 35.5497 -33.0775 main 1730 1730 P_____________ AL051921 35.5497 -33.0775 EX 32 -4 2 238
1921289N24276 1921 54 NA NA NOT_NAMED 1921-10-24 00:00:00 ET 35.5000 -33.2000 35 hurdat_atl main 1738 1738 O_____________ hurdat_atl AL051921 35.5000 -33.2000 EX 35 -4 4 261
1921289N24276 1921 54 NA NA NOT_NAMED 1921-10-24 03:00:00 ET 35.4881 -33.5324 main 1763 1763 P_____________ AL051921 35.4881 -33.5324 EX 32 -4 7 270
1921289N24276 1921 54 NA NA NOT_NAMED 1921-10-24 06:00:00 ET 35.5000 -34.0000 30 hurdat_atl main 1805 O_____________ hurdat_atl AL051921 35.5000 -34.0000 EX 30 -4 8 272

IBTrACS Databaseについて

本データベースは、米国NOAAが公開する1842年以降の世界の熱帯低気圧のベストトラックデータアーカイブInternational Best Track Archive for Climate Stewardship (IBTrACS)を、ウェブで閲覧しやすい形式に変換したものです。

最終更新日:2021-12-06